Time;durP1;ratioP1;P1;durP2;ratioP2;P2;SDS_P1;SDS_P2;PMS_P1;PMS_P2;Temp;Humidity;BMP_temperature;BMP_pressure;BME280_temperature;BME280_humidity;BME280_pressure;Samples;Min_cycle;Max_cycle;Signal;HPM_P1;HPM_P2
2024/04/04 00:00:35;;;;;;;4.20;1.37;;;;;;;;;;1905283;75;21062;-55
2024/04/04 00:03:04;;;;;;;3.17;1.40;;;;;;;;;;1904997;74;21043;-55
2024/04/04 00:05:32;;;;;;;7.22;1.37;;;;;;;;;;1905303;75;21007;-52
2024/04/04 00:08:01;;;;;;;4.55;1.50;;;;;;;;;;1905292;75;21031;-53
2024/04/04 00:10:30;;;;;;;3.52;1.40;;;;;;;;;;1905321;75;21036;-54
2024/04/04 00:12:59;;;;;;;4.65;1.30;;;;;;;;;;1905374;75;21305;-54
2024/04/04 00:15:28;;;;;;;2.05;1.40;;;;;;;;;;1905398;75;21007;-53
2024/04/04 00:17:56;;;;;;;8.50;1.75;;;;;;;;;;1905227;75;21031;-53
2024/04/04 00:20:25;;;;;;;1.82;1.32;;;;;;;;;;1905258;74;21551;-54
2024/04/04 00:22:54;;;;;;;1.75;1.32;;;;;;;;;;1905302;75;21031;-53
2024/04/04 00:25:22;;;;;;;7.15;1.80;;;;;;;;;;1905359;75;21003;-53
2024/04/04 00:27:51;;;;;;;5.70;1.50;;;;;;;;;;1916537;74;21116;-53
2024/04/04 00:30:19;;;;;;;1.25;1.10;;;;;;;;;;1924648;74;20999;-53
2024/04/04 00:32:48;;;;;;;3.30;1.52;;;;;;;;;;1924748;74;21019;-54
2024/04/04 00:35:17;;;;;;;4.00;1.50;;;;;;;;;;1924755;74;20983;-54
2024/04/04 00:37:47;;;;;;;4.12;1.92;;;;;;;;;;1924750;74;21011;-53
2024/04/04 00:40:15;;;;;;;2.85;1.30;;;;;;;;;;1924628;74;21433;-52
2024/04/04 00:42:44;;;;;;;1.98;1.37;;;;;;;;;;1924620;74;21098;-55
2024/04/04 00:45:13;;;;;;;2.12;1.15;;;;;;;;;;1924705;74;21069;-53
2024/04/04 00:47:43;;;;;;;2.20;1.37;;;;;;;;;;1924645;74;21088;-53
2024/04/04 00:50:12;;;;;;;2.22;1.20;;;;;;;;;;1924679;74;21480;-52
2024/04/04 00:52:41;;;;;;;6.28;1.95;;;;;;;;;;1924619;74;21028;-52
2024/04/04 00:55:09;;;;;;;3.05;1.55;;;;;;;;;;1924761;74;21139;-54
2024/04/04 00:57:38;;;;;;;3.05;1.50;;;;;;;;;;1924601;74;21097;-53
2024/04/04 01:00:08;;;;;;;4.33;1.80;;;;;;;;;;1924737;74;21003;-55
2024/04/04 01:02:37;;;;;;;5.20;1.57;;;;;;;;;;1924707;74;21011;-53
2024/04/04 01:05:06;;;;;;;2.25;1.35;;;;;;;;;;1924645;74;21090;-53
2024/04/04 01:07:35;;;;;;;2.98;1.92;;;;;;;;;;1924657;74;21015;-52
2024/04/04 01:10:07;;;;;;;4.17;1.57;;;;;;;;;;1924780;74;21007;-54
2024/04/04 01:12:37;;;;;;;2.40;1.15;;;;;;;;;;1924624;74;21026;-53
2024/04/04 01:15:06;;;;;;;4.60;1.62;;;;;;;;;;1924707;74;21085;-54
2024/04/04 01:17:35;;;;;;;5.50;1.50;;;;;;;;;;1924670;74;20995;-54
2024/04/04 01:20:04;;;;;;;1.92;1.35;;;;;;;;;;1924775;74;21019;-53
2024/04/04 01:22:33;;;;;;;4.33;1.72;;;;;;;;;;1924753;74;21118;-54
2024/04/04 01:25:02;;;;;;;4.65;1.92;;;;;;;;;;1924712;74;21438;-54
2024/04/04 01:27:31;;;;;;;3.58;1.65;;;;;;;;;;1920171;74;21158;-54
2024/04/04 01:29:59;;;;;;;3.92;1.27;;;;;;;;;;1905395;75;21144;-54
2024/04/04 01:32:28;;;;;;;2.00;1.62;;;;;;;;;;1905190;75;21011;-54
2024/04/04 01:34:56;;;;;;;3.77;1.27;;;;;;;;;;1905279;75;21015;-54
2024/04/04 01:37:25;;;;;;;3.15;1.65;;;;;;;;;;1905188;75;21087;-54
2024/04/04 01:39:54;;;;;;;2.25;1.32;;;;;;;;;;1905208;75;21093;-54
2024/04/04 01:42:23;;;;;;;1.67;1.57;;;;;;;;;;1905229;75;21097;-53
2024/04/04 01:44:51;;;;;;;5.53;1.50;;;;;;;;;;1905252;75;21034;-54
2024/04/04 01:47:20;;;;;;;2.70;1.40;;;;;;;;;;1905288;75;21077;-53
2024/04/04 01:49:48;;;;;;;4.00;1.45;;;;;;;;;;1905373;75;21003;-53
2024/04/04 01:52:17;;;;;;;5.05;1.75;;;;;;;;;;1905221;74;21008;-54
2024/04/04 01:54:46;;;;;;;1.80;1.17;;;;;;;;;;1905304;75;21020;-53
2024/04/04 01:57:14;;;;;;;6.17;1.42;;;;;;;;;;1905228;75;21082;-54
2024/04/04 01:59:43;;;;;;;4.60;1.75;;;;;;;;;;1905268;75;21036;-54
2024/04/04 02:02:12;;;;;;;2.60;1.52;;;;;;;;;;1905187;75;21149;-52
2024/04/04 02:04:41;;;;;;;3.35;1.50;;;;;;;;;;1905396;75;21015;-53
2024/04/04 02:07:09;;;;;;;3.05;1.40;;;;;;;;;;1905251;75;21031;-53
2024/04/04 02:09:38;;;;;;;3.22;1.45;;;;;;;;;;1905335;75;21089;-54
2024/04/04 02:12:09;;;;;;;5.05;1.52;;;;;;;;;;1905340;74;21007;-54
2024/04/04 02:14:37;;;;;;;2.90;1.20;;;;;;;;;;1905288;75;20988;-53
2024/04/04 02:17:06;;;;;;;2.40;1.25;;;;;;;;;;1905196;75;21027;-55
2024/04/04 02:19:34;;;;;;;5.45;1.40;;;;;;;;;;1905188;75;21054;-53
2024/04/04 02:22:03;;;;;;;5.55;1.50;;;;;;;;;;1905201;75;21027;-54
2024/04/04 02:24:32;;;;;;;2.27;1.40;;;;;;;;;;1905241;75;21059;-54
2024/04/04 02:27:00;;;;;;;3.40;1.27;;;;;;;;;;1905337;75;21015;-54
2024/04/04 02:29:29;;;;;;;4.30;1.20;;;;;;;;;;1905185;75;21083;-52
2024/04/04 02:31:58;;;;;;;2.33;1.50;;;;;;;;;;1905203;75;21019;-53
2024/04/04 02:34:27;;;;;;;5.78;1.60;;;;;;;;;;1905346;75;21067;-54
2024/04/04 02:36:55;;;;;;;4.08;1.70;;;;;;;;;;1905320;75;21110;-55
2024/04/04 02:39:25;;;;;;;2.60;1.20;;;;;;;;;;1905258;75;21024;-53
2024/04/04 02:41:53;;;;;;;2.15;1.30;;;;;;;;;;1905128;75;20992;-54
2024/04/04 02:44:22;;;;;;;5.17;1.22;;;;;;;;;;1905317;75;21007;-54
2024/04/04 02:46:50;;;;;;;6.12;1.20;;;;;;;;;;1905197;75;21089;-54
2024/04/04 02:49:19;;;;;;;4.40;1.22;;;;;;;;;;1905332;75;21137;-52
2024/04/04 02:51:48;;;;;;;3.65;1.60;;;;;;;;;;1905224;75;21024;-54
2024/04/04 02:54:16;;;;;;;2.45;1.70;;;;;;;;;;1905214;75;21023;-54
2024/04/04 02:56:46;;;;;;;3.52;1.60;;;;;;;;;;1905193;75;21085;-53
2024/04/04 02:59:15;;;;;;;3.37;1.30;;;;;;;;;;1905186;75;21153;-54
2024/04/04 03:01:44;;;;;;;4.25;1.42;;;;;;;;;;1905276;75;21552;-54
2024/04/04 03:04:13;;;;;;;2.52;1.27;;;;;;;;;;1905333;75;21031;-54
2024/04/04 03:06:42;;;;;;;4.53;1.30;;;;;;;;;;1905377;75;21031;-53
2024/04/04 03:09:11;;;;;;;3.80;1.65;;;;;;;;;;1905326;74;21016;-55
2024/04/04 03:11:40;;;;;;;1.80;1.57;;;;;;;;;;1905222;75;21027;-53
2024/04/04 03:14:08;;;;;;;1.42;1.25;;;;;;;;;;1905308;75;21003;-53
2024/04/04 03:16:36;;;;;;;1.42;1.10;;;;;;;;;;1905413;74;21020;-54
2024/04/04 03:19:05;;;;;;;1.25;1.12;;;;;;;;;;1905181;75;21027;-53
2024/04/04 03:21:34;;;;;;;3.80;1.75;;;;;;;;;;1905285;75;21023;-54
2024/04/04 03:24:03;;;;;;;3.90;1.30;;;;;;;;;;1905155;75;21012;-53
2024/04/04 03:26:32;;;;;;;3.80;1.32;;;;;;;;;;1905239;75;21019;-53
2024/04/04 03:29:01;;;;;;;6.70;1.60;;;;;;;;;;1913652;74;21055;-52
2024/04/04 03:31:30;;;;;;;4.75;1.57;;;;;;;;;;1924665;74;21018;-54
2024/04/04 03:33:59;;;;;;;5.78;1.40;;;;;;;;;;1924568;74;21085;-54
2024/04/04 03:36:28;;;;;;;2.27;1.62;;;;;;;;;;1924477;74;21074;-54
2024/04/04 03:38:57;;;;;;;8.15;1.45;;;;;;;;;;1924632;74;21011;-55
2024/04/04 03:41:25;;;;;;;8.03;2.45;;;;;;;;;;1924556;74;21027;-55
2024/04/04 03:43:54;;;;;;;5.15;1.40;;;;;;;;;;1924613;74;21039;-53
2024/04/04 03:46:23;;;;;;;4.30;1.65;;;;;;;;;;1924618;74;20979;-55
2024/04/04 03:48:51;;;;;;;2.95;1.10;;;;;;;;;;1924522;74;21023;-55
2024/04/04 03:51:20;;;;;;;4.05;1.37;;;;;;;;;;1924547;74;21039;-54
2024/04/04 03:53:49;;;;;;;2.40;1.30;;;;;;;;;;1924561;74;21034;-55
2024/04/04 03:56:17;;;;;;;3.42;1.32;;;;;;;;;;1924526;74;21022;-53
2024/04/04 03:58:46;;;;;;;4.33;1.60;;;;;;;;;;1924543;74;21038;-54
2024/04/04 04:01:14;;;;;;;3.80;1.30;;;;;;;;;;1924508;74;21067;-54
2024/04/04 04:03:44;;;;;;;3.95;1.20;;;;;;;;;;1924535;74;21031;-55
2024/04/04 04:06:12;;;;;;;6.40;1.57;;;;;;;;;;1924550;74;21104;-53
2024/04/04 04:08:41;;;;;;;1.75;1.30;;;;;;;;;;1924575;74;21101;-53
2024/04/04 04:11:09;;;;;;;23.40;3.15;;;;;;;;;;1924652;74;21069;-53
2024/04/04 04:13:38;;;;;;;5.45;1.80;;;;;;;;;;1924583;74;21011;-54
2024/04/04 04:16:08;;;;;;;4.67;1.62;;;;;;;;;;1924471;74;21101;-54
2024/04/04 04:18:36;;;;;;;6.35;1.27;;;;;;;;;;1924537;74;21066;-54
2024/04/04 04:23:53;;;;;;;2.75;1.42;;;;;;;;;;1924566;74;21035;-55
2024/04/04 04:26:22;;;;;;;5.03;1.30;;;;;;;;;;1924575;74;21006;-54
2024/04/04 04:28:50;;;;;;;6.85;1.50;;;;;;;;;;1921739;74;21101;-55
2024/04/04 04:31:32;;;;;;;4.78;1.47;;;;;;;;;;1905286;74;21054;-54
2024/04/04 04:34:03;;;;;;;3.70;0.98;;;;;;;;;;1905323;75;21020;-54
2024/04/04 04:36:32;;;;;;;1.30;0.88;;;;;;;;;;1905331;75;21023;-54
2024/04/04 04:39:01;;;;;;;2.77;1.20;;;;;;;;;;1905259;75;21113;-53
2024/04/04 04:41:29;;;;;;;3.90;1.22;;;;;;;;;;1905256;75;21055;-55
2024/04/04 04:43:58;;;;;;;2.00;1.10;;;;;;;;;;1905330;75;21079;-55
2024/04/04 04:46:26;;;;;;;9.20;3.30;;;;;;;;;;1905285;74;21007;-53
2024/04/04 04:48:55;;;;;;;10.35;1.42;;;;;;;;;;1905249;75;21071;-54
2024/04/04 04:51:24;;;;;;;3.50;1.22;;;;;;;;;;1905413;74;21020;-54
2024/04/04 04:53:52;;;;;;;3.45;1.80;;;;;;;;;;1905176;75;21097;-53
2024/04/04 04:56:20;;;;;;;4.92;1.60;;;;;;;;;;1905227;75;21065;-53
2024/04/04 04:58:49;;;;;;;1.77;1.20;;;;;;;;;;1905221;75;21023;-53
2024/04/04 05:01:18;;;;;;;3.27;0.95;;;;;;;;;;1905305;75;21031;-54
2024/04/04 05:03:46;;;;;;;2.08;0.95;;;;;;;;;;1905425;75;21024;-54
2024/04/04 05:06:15;;;;;;;6.25;1.45;;;;;;;;;;1905322;75;21089;-54
2024/04/04 05:08:43;;;;;;;10.85;1.65;;;;;;;;;;1905504;75;21081;-53
2024/04/04 05:11:12;;;;;;;2.40;1.40;;;;;;;;;;1905455;74;21031;-54
2024/04/04 05:13:41;;;;;;;2.80;1.10;;;;;;;;;;1905416;75;21032;-55
2024/04/04 05:16:09;;;;;;;4.33;1.32;;;;;;;;;;1905234;75;21079;-54
2024/04/04 05:18:38;;;;;;;3.00;0.90;;;;;;;;;;1905317;74;21024;-55
2024/04/04 05:21:07;;;;;;;1.35;0.88;;;;;;;;;;1905454;75;21027;-54
2024/04/04 05:23:35;;;;;;;9.68;1.55;;;;;;;;;;1905299;75;21035;-53
2024/04/04 05:26:04;;;;;;;3.42;1.45;;;;;;;;;;1905297;75;21073;-54
2024/04/04 05:28:34;;;;;;;2.02;1.45;;;;;;;;;;1905231;75;21012;-54
2024/04/04 05:31:03;;;;;;;4.12;1.37;;;;;;;;;;1921439;74;21035;-54
2024/04/04 05:33:32;;;;;;;2.37;1.00;;;;;;;;;;1924666;74;21183;-53
2024/04/04 05:36:01;;;;;;;2.00;0.80;;;;;;;;;;1924651;74;21089;-55
2024/04/04 05:38:30;;;;;;;4.58;1.50;;;;;;;;;;1924604;74;21073;-54
2024/04/04 05:41:00;;;;;;;9.23;3.02;;;;;;;;;;1924648;74;21086;-54
2024/04/04 05:43:29;;;;;;;6.10;1.35;;;;;;;;;;1924360;74;21034;-53
2024/04/04 05:45:57;;;;;;;2.85;0.98;;;;;;;;;;1924717;74;21007;-55
2024/04/04 05:48:26;;;;;;;6.35;1.60;;;;;;;;;;1924682;74;21109;-54
2024/04/04 05:51:04;;;;;;;3.17;1.10;;;;;;;;;;1924718;74;20995;-55
2024/04/04 05:53:30;;;;;;;11.63;1.32;;;;;;;;;;1924348;74;21030;-54
2024/04/04 05:55:58;;;;;;;2.17;1.15;;;;;;;;;;1924713;74;21023;-54
2024/04/04 05:58:27;;;;;;;6.12;1.27;;;;;;;;;;1924712;74;21088;-53
2024/04/04 06:00:56;;;;;;;2.22;0.82;;;;;;;;;;1924657;74;21148;-55
2024/04/04 06:03:24;;;;;;;4.55;1.10;;;;;;;;;;1924622;74;21080;-53
2024/04/04 06:05:53;;;;;;;33.70;3.27;;;;;;;;;;1924657;74;21027;-54
2024/04/04 06:08:22;;;;;;;4.05;1.42;;;;;;;;;;1924692;74;21101;-53
2024/04/04 06:10:51;;;;;;;4.17;1.07;;;;;;;;;;1924718;74;21086;-54
2024/04/04 06:13:19;;;;;;;1.92;1.30;;;;;;;;;;1924779;74;20999;-54
2024/04/04 06:15:54;;;;;;;8.03;1.30;;;;;;;;;;1924729;74;21046;-54
2024/04/04 06:18:23;;;;;;;3.02;0.82;;;;;;;;;;1924851;74;21030;-54
2024/04/04 06:20:51;;;;;;;31.10;3.05;;;;;;;;;;1924763;74;21039;-53
2024/04/04 06:23:20;;;;;;;5.85;1.15;;;;;;;;;;1924720;74;21136;-54
2024/04/04 06:25:48;;;;;;;5.33;2.22;;;;;;;;;;1924758;74;21072;-54
2024/04/04 06:28:17;;;;;;;3.12;1.20;;;;;;;;;;1924714;74;21034;-54
2024/04/04 06:30:46;;;;;;;2.15;1.40;;;;;;;;;;1914659;74;21051;-54
2024/04/04 06:33:15;;;;;;;12.85;1.92;;;;;;;;;;1905424;75;21027;-54
2024/04/04 06:35:44;;;;;;;2.87;0.95;;;;;;;;;;1905199;75;21031;-54
2024/04/04 06:38:12;;;;;;;6.42;1.37;;;;;;;;;;1905363;75;21016;-53
2024/04/04 06:40:41;;;;;;;1.60;0.80;;;;;;;;;;1905292;75;21094;-53
2024/04/04 06:43:10;;;;;;;7.80;2.50;;;;;;;;;;1905284;75;21059;-52
2024/04/04 06:45:38;;;;;;;3.33;1.42;;;;;;;;;;1905223;75;21027;-53
2024/04/04 06:48:07;;;;;;;5.45;1.32;;;;;;;;;;1905388;75;21486;-54
2024/04/04 06:50:36;;;;;;;2.17;1.10;;;;;;;;;;1905239;75;21007;-54
2024/04/04 06:53:05;;;;;;;7.17;1.42;;;;;;;;;;1905333;75;21086;-55
2024/04/04 06:55:33;;;;;;;3.75;1.30;;;;;;;;;;1905324;75;20996;-54
2024/04/04 06:58:02;;;;;;;3.50;1.20;;;;;;;;;;1905233;75;21011;-53
2024/04/04 07:00:31;;;;;;;3.47;1.45;;;;;;;;;;1905288;75;21152;-53
2024/04/04 07:03:00;;;;;;;4.40;1.15;;;;;;;;;;1905329;75;21067;-53
2024/04/04 07:05:29;;;;;;;7.25;1.67;;;;;;;;;;1905406;75;21105;-54
2024/04/04 07:07:57;;;;;;;3.77;1.20;;;;;;;;;;1905398;75;21125;-53
2024/04/04 07:10:26;;;;;;;1.98;1.25;;;;;;;;;;1895969;75;21063;-52
2024/04/04 07:12:55;;;;;;;4.05;1.27;;;;;;;;;;1881804;75;21029;-52
2024/04/04 07:15:23;;;;;;;8.43;1.35;;;;;;;;;;1872701;75;21037;-52
2024/04/04 07:17:53;;;;;;;3.75;1.65;;;;;;;;;;1881878;75;21007;-53
2024/04/04 07:20:22;;;;;;;9.73;1.50;;;;;;;;;;1889047;75;21041;-52
2024/04/04 07:22:50;;;;;;;3.30;1.80;;;;;;;;;;1887209;75;21065;-52
2024/04/04 07:25:19;;;;;;;3.20;1.47;;;;;;;;;;1889278;75;21024;-51
2024/04/04 07:27:47;;;;;;;2.15;1.00;;;;;;;;;;1890322;75;21044;-49
2024/04/04 07:30:16;;;;;;;3.58;1.27;;;;;;;;;;1890509;74;21071;-53
2024/04/04 07:32:45;;;;;;;3.92;1.35;;;;;;;;;;1894173;75;21156;-51
2024/04/04 07:35:14;;;;;;;2.50;0.82;;;;;;;;;;1872368;75;21062;-52
2024/04/04 07:37:43;;;;;;;2.80;0.93;;;;;;;;;;1885572;75;21085;-48
2024/04/04 07:40:11;;;;;;;3.80;1.10;;;;;;;;;;1881324;75;21063;-52
2024/04/04 07:42:40;;;;;;;4.75;1.15;;;;;;;;;;1872154;77;21056;-52
2024/04/04 07:45:10;;;;;;;0.98;0.85;;;;;;;;;;1872357;76;21017;-55
2024/04/04 07:47:39;;;;;;;2.22;0.78;;;;;;;;;;1872098;77;21080;-52
2024/04/04 07:50:08;;;;;;;3.45;1.72;;;;;;;;;;1872349;76;21107;-50
2024/04/04 07:52:37;;;;;;;27.82;2.72;;;;;;;;;;1872105;77;21363;-54
2024/04/04 07:55:06;;;;;;;34.20;4.35;;;;;;;;;;1884358;75;21080;-49
2024/04/04 07:57:34;;;;;;;7.55;2.95;;;;;;;;;;1899931;75;21071;-50
2024/04/04 08:00:03;;;;;;;3.90;1.07;;;;;;;;;;1891938;75;21028;-51
2024/04/04 08:02:33;;;;;;;1.72;1.22;;;;;;;;;;1890502;75;21521;-51
2024/04/04 08:05:01;;;;;;;2.02;0.88;;;;;;;;;;1895260;75;21068;-55
2024/04/04 08:07:35;;;;;;;6.10;1.72;;;;;;;;;;1900383;75;21043;-49
2024/04/04 08:10:01;;;;;;;2.35;0.95;;;;;;;;;;1891212;75;22504;-55
2024/04/04 08:12:30;;;;;;;3.12;1.17;;;;;;;;;;1885203;75;21082;-55
2024/04/04 08:14:59;;;;;;;1.67;0.75;;;;;;;;;;1873000;76;21037;-55
2024/04/04 08:17:27;;;;;;;2.10;0.72;;;;;;;;;;1887763;75;21028;-54
2024/04/04 08:19:57;;;;;;;4.30;1.00;;;;;;;;;;1884143;75;21106;-55
2024/04/04 08:22:25;;;;;;;4.05;1.37;;;;;;;;;;1905607;74;21020;-53
2024/04/04 08:24:54;;;;;;;2.55;1.00;;;;;;;;;;1905576;75;21040;-54
2024/04/04 08:27:23;;;;;;;2.80;1.25;;;;;;;;;;1905372;75;21032;-52
2024/04/04 08:29:52;;;;;;;4.58;1.00;;;;;;;;;;1901562;74;21031;-52
2024/04/04 08:32:21;;;;;;;2.17;0.98;;;;;;;;;;1920365;74;21062;-52
2024/04/04 08:34:50;;;;;;;7.42;1.10;;;;;;;;;;1915055;74;21015;-53
2024/04/04 08:37:18;;;;;;;3.80;1.42;;;;;;;;;;1917681;74;21019;-52
2024/04/04 08:39:47;;;;;;;5.05;1.25;;;;;;;;;;1922924;74;21007;-52
2024/04/04 08:42:16;;;;;;;7.15;1.07;;;;;;;;;;1906674;74;21036;-52
2024/04/04 08:44:45;;;;;;;9.10;1.00;;;;;;;;;;1891080;76;21122;-49
2024/04/04 08:47:16;;;;;;;5.50;1.00;;;;;;;;;;1898099;74;21083;-52
2024/04/04 08:49:47;;;;;;;3.55;0.82;;;;;;;;;;1904336;74;21062;-53
2024/04/04 08:52:16;;;;;;;1.50;0.90;;;;;;;;;;1908123;74;21068;-47
2024/04/04 08:54:45;;;;;;;7.47;1.05;;;;;;;;;;1907886;74;21071;-49
2024/04/04 08:57:14;;;;;;;4.53;1.82;;;;;;;;;;1910577;74;21159;-48
2024/04/04 08:59:42;;;;;;;5.17;0.90;;;;;;;;;;1908170;74;21098;-49
2024/04/04 09:02:11;;;;;;;1.32;0.60;;;;;;;;;;1910440;74;21038;-48
2024/04/04 09:04:40;;;;;;;1.70;0.88;;;;;;;;;;1908394;74;21579;-51
2024/04/04 09:07:08;;;;;;;2.62;0.90;;;;;;;;;;1902044;74;21329;-48
2024/04/04 09:09:38;;;;;;;8.90;1.22;;;;;;;;;;1890971;76;21032;-48
2024/04/04 09:12:16;;;;;;;1.92;0.70;;;;;;;;;;1896270;74;21054;-46
2024/04/04 09:14:43;;;;;;;2.92;1.17;;;;;;;;;;1910862;74;21562;-50
2024/04/04 09:17:12;;;;;;;4.40;1.40;;;;;;;;;;1908733;74;21323;-50
2024/04/04 09:19:40;;;;;;;6.03;0.90;;;;;;;;;;1924089;74;21140;-49
2024/04/04 09:22:09;;;;;;;6.40;1.65;;;;;;;;;;1922982;74;21100;-48
2024/04/04 09:24:38;;;;;;;3.47;0.90;;;;;;;;;;1900883;74;21038;-48
2024/04/04 09:27:06;;;;;;;0.88;0.70;;;;;;;;;;1906900;74;21074;-48
2024/04/04 09:29:35;;;;;;;0.90;0.72;;;;;;;;;;1895363;74;21564;-48
2024/04/04 09:32:05;;;;;;;2.00;0.72;;;;;;;;;;1893239;75;21062;-52
2024/04/04 09:34:35;;;;;;;1.47;0.98;;;;;;;;;;1898685;75;21505;-47
2024/04/04 09:37:04;;;;;;;1.52;1.00;;;;;;;;;;1881624;76;21106;-47
2024/04/04 09:39:33;;;;;;;2.35;0.98;;;;;;;;;;1882749;75;21046;-48
2024/04/04 09:42:02;;;;;;;1.02;0.80;;;;;;;;;;1884576;75;21042;-48
2024/04/04 09:44:32;;;;;;;4.70;1.05;;;;;;;;;;1884273;75;21481;-52
2024/04/04 09:47:01;;;;;;;0.85;0.53;;;;;;;;;;1892200;75;21173;-48
2024/04/04 09:49:30;;;;;;;4.22;0.98;;;;;;;;;;1910307;75;21105;-52
2024/04/04 09:52:01;;;;;;;19.15;7.28;;;;;;;;;;1881555;76;21046;-48
2024/04/04 09:54:30;;;;;;;2.02;1.10;;;;;;;;;;1886630;75;21023;-48
2024/04/04 09:56:59;;;;;;;1.65;0.90;;;;;;;;;;1914133;75;21055;-48
2024/04/04 09:59:28;;;;;;;2.25;0.98;;;;;;;;;;1901800;75;21027;-48
2024/04/04 10:02:03;;;;;;;10.03;1.22;;;;;;;;;;1890575;75;21064;-47
2024/04/04 10:04:38;;;;;;;4.58;1.12;;;;;;;;;;1896863;75;21043;-54
2024/04/04 10:07:07;;;;;;;3.52;1.30;;;;;;;;;;1888377;75;21062;-49
2024/04/04 10:09:38;;;;;;;3.58;1.10;;;;;;;;;;1897386;75;21121;-49
2024/04/04 10:12:13;;;;;;;2.35;0.80;;;;;;;;;;1895408;75;21092;-50
2024/04/04 10:14:52;;;;;;;1.77;0.93;;;;;;;;;;1894239;75;21179;-56
2024/04/04 10:17:21;;;;;;;6.83;1.27;;;;;;;;;;1894516;75;21268;-56
2024/04/04 10:19:51;;;;;;;6.90;1.02;;;;;;;;;;1897942;75;21019;-56
2024/04/04 10:22:21;;;;;;;3.25;0.82;;;;;;;;;;1899173;75;21097;-56
2024/04/04 10:24:51;;;;;;;8.35;1.50;;;;;;;;;;1894393;75;21018;-55
2024/04/04 10:27:20;;;;;;;11.25;1.57;;;;;;;;;;1897819;75;21075;-55
2024/04/04 10:29:48;;;;;;;13.62;2.65;;;;;;;;;;1893866;75;21091;-56
2024/04/04 10:32:18;;;;;;;14.13;1.60;;;;;;;;;;1897606;75;21116;-55
2024/04/04 10:34:47;;;;;;;4.42;0.70;;;;;;;;;;1897204;75;21073;-53
2024/04/04 10:37:16;;;;;;;4.80;0.80;;;;;;;;;;1892023;75;21029;-50
2024/04/04 10:39:46;;;;;;;8.18;1.27;;;;;;;;;;1893928;75;21042;-51
2024/04/04 10:42:15;;;;;;;2.15;0.68;;;;;;;;;;1884548;75;21101;-54
2024/04/04 10:44:44;;;;;;;2.45;0.80;;;;;;;;;;1884750;75;21488;-53
2024/04/04 10:47:12;;;;;;;3.15;1.05;;;;;;;;;;1887125;75;21032;-55
2024/04/04 10:49:41;;;;;;;2.37;1.15;;;;;;;;;;1890690;75;21085;-51
2024/04/04 10:52:10;;;;;;;7.95;2.12;;;;;;;;;;1910369;75;21070;-55
2024/04/04 10:54:39;;;;;;;3.08;1.10;;;;;;;;;;1898780;75;21394;-50
2024/04/04 10:57:07;;;;;;;3.98;1.22;;;;;;;;;;1899676;75;21070;-50
2024/04/04 10:59:36;;;;;;;4.42;1.07;;;;;;;;;;1896082;74;21027;-53
2024/04/04 11:02:07;;;;;;;5.37;1.05;;;;;;;;;;1897173;75;21016;-50
2024/04/04 11:04:36;;;;;;;4.10;0.98;;;;;;;;;;1897101;74;21136;-49
2024/04/04 11:07:07;;;;;;;3.83;0.82;;;;;;;;;;1896366;75;21128;-52
2024/04/04 11:09:36;;;;;;;3.75;1.25;;;;;;;;;;1898348;75;21121;-52
2024/04/04 11:12:05;;;;;;;2.85;1.07;;;;;;;;;;1899801;75;21037;-50
2024/04/04 11:14:35;;;;;;;2.65;1.37;;;;;;;;;;1898905;75;21185;-48
2024/04/04 11:17:04;;;;;;;4.10;1.02;;;;;;;;;;1897525;75;21076;-46
2024/04/04 11:19:32;;;;;;;2.65;0.50;;;;;;;;;;1897812;75;21185;-47
2024/04/04 11:22:01;;;;;;;7.10;1.55;;;;;;;;;;1895420;75;21212;-46
2024/04/04 11:24:29;;;;;;;2.50;0.80;;;;;;;;;;1897539;75;21132;-46
2024/04/04 11:26:58;;;;;;;3.00;0.95;;;;;;;;;;1898525;75;21003;-47
2024/04/04 11:29:26;;;;;;;4.00;0.85;;;;;;;;;;1896747;75;21141;-45
2024/04/04 11:31:55;;;;;;;2.00;1.30;;;;;;;;;;1896237;75;21573;-46
2024/04/04 11:34:24;;;;;;;1.82;0.80;;;;;;;;;;1899126;75;21089;-47
2024/04/04 11:36:53;;;;;;;1.25;0.62;;;;;;;;;;1899481;75;21044;-48
2024/04/04 11:39:23;;;;;;;1.85;1.22;;;;;;;;;;1897096;75;21024;-47
2024/04/04 11:41:54;;;;;;;3.40;0.93;;;;;;;;;;1897622;75;21062;-45
2024/04/04 11:44:21;;;;;;;0.70;0.57;;;;;;;;;;1899993;75;21563;-45
2024/04/04 11:46:50;;;;;;;1.70;0.62;;;;;;;;;;1898907;75;21114;-46
2024/04/04 11:49:18;;;;;;;3.17;1.10;;;;;;;;;;1896849;75;21040;-44
2024/04/04 11:51:47;;;;;;;1.65;0.78;;;;;;;;;;1898742;75;21026;-45
2024/04/04 11:54:16;;;;;;;1.50;0.68;;;;;;;;;;1900067;75;21175;-46
2024/04/04 11:56:46;;;;;;;5.45;1.10;;;;;;;;;;1897566;75;21036;-45
2024/04/04 11:59:15;;;;;;;1.30;1.00;;;;;;;;;;1896920;75;21062;-46
2024/04/04 12:01:44;;;;;;;1.98;0.93;;;;;;;;;;1899607;75;21008;-44
2024/04/04 12:04:13;;;;;;;1.02;0.60;;;;;;;;;;1899445;75;21187;-45
2024/04/04 12:06:41;;;;;;;0.80;0.60;;;;;;;;;;1896919;75;21137;-45
2024/04/04 12:09:10;;;;;;;6.95;1.47;;;;;;;;;;1898121;75;21015;-49
2024/04/04 12:11:40;;;;;;;2.40;0.90;;;;;;;;;;1900226;75;21125;-47
2024/04/04 12:14:09;;;;;;;2.05;0.90;;;;;;;;;;1898586;75;21074;-45
2024/04/04 12:16:39;;;;;;;3.92;1.25;;;;;;;;;;1896721;75;21040;-45
2024/04/04 12:19:26;;;;;;;6.20;1.22;;;;;;;;;;1898626;75;20980;-45
2024/04/04 12:21:55;;;;;;;1.10;0.68;;;;;;;;;;1899780;75;21111;-45
2024/04/04 12:24:23;;;;;;;1.27;0.95;;;;;;;;;;1901279;75;21166;-48
2024/04/04 12:26:52;;;;;;;2.70;0.93;;;;;;;;;;1897620;75;21022;-45
2024/04/04 12:29:21;;;;;;;2.05;0.93;;;;;;;;;;1900030;75;21058;-45
2024/04/04 12:31:50;;;;;;;3.33;1.22;;;;;;;;;;1898619;75;21032;-45
2024/04/04 12:34:18;;;;;;;2.83;0.80;;;;;;;;;;1889528;74;21122;-44
2024/04/04 12:36:47;;;;;;;1.47;0.75;;;;;;;;;;1889288;75;21036;-46
2024/04/04 12:39:15;;;;;;;2.45;0.82;;;;;;;;;;1890573;75;21476;-47
2024/04/04 12:41:44;;;;;;;5.20;1.22;;;;;;;;;;1888033;75;21017;-46
2024/04/04 12:44:13;;;;;;;4.67;0.85;;;;;;;;;;1887899;75;21036;-44
2024/04/04 12:46:42;;;;;;;0.70;0.70;;;;;;;;;;1887270;75;21024;-46
2024/04/04 12:49:14;;;;;;;6.47;0.90;;;;;;;;;;1888139;74;21056;-44
2024/04/04 12:51:42;;;;;;;1.95;0.70;;;;;;;;;;1887375;75;21526;-47
2024/04/04 12:54:11;;;;;;;1.40;0.90;;;;;;;;;;1888619;75;21089;-44
2024/04/04 12:56:39;;;;;;;2.80;1.57;;;;;;;;;;1890462;75;21015;-46
2024/04/04 12:59:08;;;;;;;6.20;0.98;;;;;;;;;;1888581;75;21048;-46
2024/04/04 13:01:37;;;;;;;10.72;0.90;;;;;;;;;;1887256;75;21464;-47
2024/04/04 13:04:05;;;;;;;1.37;0.85;;;;;;;;;;1889778;75;21032;-46
2024/04/04 13:06:34;;;;;;;1.15;0.57;;;;;;;;;;1890122;75;21089;-45
2024/04/04 13:09:04;;;;;;;1.20;0.70;;;;;;;;;;1886180;75;21008;-45
2024/04/04 13:11:33;;;;;;;4.50;1.10;;;;;;;;;;1889777;75;21088;-46
2024/04/04 13:14:01;;;;;;;2.33;0.70;;;;;;;;;;1887185;75;21506;-45
2024/04/04 13:16:30;;;;;;;2.25;0.62;;;;;;;;;;1888701;75;21113;-46
2024/04/04 13:18:59;;;;;;;3.15;1.00;;;;;;;;;;1886663;75;21098;-45
2024/04/04 13:21:27;;;;;;;5.28;1.35;;;;;;;;;;1890163;75;21011;-45
2024/04/04 13:23:56;;;;;;;1.87;1.00;;;;;;;;;;1889609;75;21162;-47
2024/04/04 13:26:25;;;;;;;8.95;1.72;;;;;;;;;;1887166;75;21035;-48
2024/04/04 13:28:53;;;;;;;3.27;1.17;;;;;;;;;;1888967;75;21093;-45
2024/04/04 13:31:22;;;;;;;3.90;0.90;;;;;;;;;;1890505;74;21061;-47
2024/04/04 13:33:51;;;;;;;1.55;0.60;;;;;;;;;;1892087;75;21114;-45
2024/04/04 13:36:19;;;;;;;1.87;0.78;;;;;;;;;;1897079;75;21079;-47
2024/04/04 13:38:48;;;;;;;2.47;0.95;;;;;;;;;;1899719;75;21027;-45
2024/04/04 13:43:17;;;;;;;1.45;0.82;;;20.20;49.60;;;;;;1942609;73;22141;-48
2024/04/04 13:45:46;;;;;;;0.82;0.50;;;19.80;53.50;;;;;;1901272;74;21461;-46
2024/04/04 14:47:14;;;;;;;1.17;0.80;;;18.70;54.30;;;;;;1973820;73;25642;-46
2024/04/04 14:49:43;;;;;;;1.55;1.00;;;18.70;55.00;;;;;;1949201;73;21413;-48
2024/04/04 14:52:12;;;;;;;2.85;0.90;;;18.60;55.20;;;;;;1949190;73;21128;-48
2024/04/04 14:54:42;;;;;;;2.42;0.90;;;18.60;55.50;;;;;;1949193;73;21014;-48
2024/04/04 14:57:11;;;;;;;1.55;0.80;;;18.60;55.60;;;;;;1949110;73;20995;-46
2024/04/04 14:59:41;;;;;;;4.65;1.40;;;18.60;55.90;;;;;;1949127;73;21077;-47
2024/04/04 15:02:11;;;;;;;2.92;1.20;;;18.60;56.00;;;;;;1949145;73;21035;-47
2024/04/04 15:04:40;;;;;;;1.55;1.00;;;18.60;55.60;;;;;;1949122;73;21076;-46
2024/04/04 15:07:09;;;;;;;8.35;1.45;;;18.60;55.60;;;;;;1949108;73;21026;-46
2024/04/04 15:09:38;;;;;;;2.30;0.98;;;18.50;55.60;;;;;;1949173;73;21425;-48
2024/04/04 15:12:07;;;;;;;2.25;0.60;;;18.50;55.70;;;;;;1949149;73;21022;-47
2024/04/04 15:14:36;;;;;;;3.62;1.00;;;18.40;55.60;;;;;;1949176;73;21027;-46
2024/04/04 15:17:06;;;;;;;2.05;1.50;;;18.40;56.00;;;;;;1948963;73;21034;-49
2024/04/04 15:19:35;;;;;;;11.97;2.08;;;18.40;56.30;;;;;;1949120;73;21014;-47
2024/04/04 15:22:05;;;;;;;6.10;1.07;;;18.30;56.60;;;;;;1949208;73;21085;-48
2024/04/04 15:24:34;;;;;;;3.62;1.25;;;18.30;57.00;;;;;;1949290;73;21038;-49
2024/04/04 15:27:02;;;;;;;7.83;1.85;;;18.20;57.50;;;;;;1949192;73;21068;-47
2024/04/04 15:29:33;;;;;;;3.85;1.45;;;18.10;57.70;;;;;;1949266;73;21076;-46
2024/04/04 15:32:02;;;;;;;6.25;2.00;;;18.00;58.00;;;;;;1949226;73;21050;-46
2024/04/04 15:34:31;;;;;;;5.90;1.77;;;17.90;58.50;;;;;;1949205;73;21081;-49
2024/04/04 15:37:00;;;;;;;6.97;2.70;;;17.90;59.10;;;;;;1949108;73;21068;-46
2024/04/04 15:39:30;;;;;;;9.55;3.05;;;17.80;59.40;;;;;;1949169;73;21003;-46
2024/04/04 15:41:59;;;;;;;10.00;3.80;;;17.70;59.80;;;;;;1949099;73;21076;-48
2024/04/04 15:44:28;;;;;;;8.05;2.62;;;17.60;60.10;;;;;;1949089;73;20986;-47
2024/04/04 15:46:57;;;;;;;14.75;3.70;;;17.50;60.20;;;;;;1941248;73;21055;-48